sensor_id;sensor_type;location;lat;lon;timestamp;P1;durP1;ratioP1;P2;durP2;ratioP2
8466;SDS011;4270;48.148;11.648;2023-12-20T00:00:47;5.80;;;2.20;;
8466;SDS011;4270;48.148;11.648;2023-12-20T00:03:12;3.97;;;2.00;;
8466;SDS011;4270;48.148;11.648;2023-12-20T00:05:37;4.40;;;2.30;;
8466;SDS011;4270;48.148;11.648;2023-12-20T00:08:06;3.77;;;2.50;;
8466;SDS011;4270;48.148;11.648;2023-12-20T00:10:31;3.13;;;2.10;;
8466;SDS011;4270;48.148;11.648;2023-12-20T00:12:56;2.93;;;2.10;;
8466;SDS011;4270;48.148;11.648;2023-12-20T00:15:21;3.60;;;2.20;;
8466;SDS011;4270;48.148;11.648;2023-12-20T00:17:46;3.60;;;2.57;;
8466;SDS011;4270;48.148;11.648;2023-12-20T00:20:12;3.47;;;2.30;;
8466;SDS011;4270;48.148;11.648;2023-12-20T00:22:37;4.00;;;2.10;;
8466;SDS011;4270;48.148;11.648;2023-12-20T00:25:02;3.97;;;2.00;;
8466;SDS011;4270;48.148;11.648;2023-12-20T00:27:27;3.80;;;2.23;;
8466;SDS011;4270;48.148;11.648;2023-12-20T00:29:52;3.40;;;2.20;;
8466;SDS011;4270;48.148;11.648;2023-12-20T00:32:18;4.03;;;2.07;;
8466;SDS011;4270;48.148;11.648;2023-12-20T00:34:43;3.90;;;2.30;;
8466;SDS011;4270;48.148;11.648;2023-12-20T00:37:08;3.93;;;2.43;;
8466;SDS011;4270;48.148;11.648;2023-12-20T00:39:33;4.40;;;2.33;;
8466;SDS011;4270;48.148;11.648;2023-12-20T00:41:58;3.10;;;2.23;;
8466;SDS011;4270;48.148;11.648;2023-12-20T00:44:23;3.40;;;2.20;;
8466;SDS011;4270;48.148;11.648;2023-12-20T00:46:49;4.33;;;2.17;;
8466;SDS011;4270;48.148;11.648;2023-12-20T00:49:14;4.10;;;2.00;;
8466;SDS011;4270;48.148;11.648;2023-12-20T00:51:39;3.57;;;2.00;;
8466;SDS011;4270;48.148;11.648;2023-12-20T00:54:04;3.73;;;2.20;;
8466;SDS011;4270;48.148;11.648;2023-12-20T00:56:29;5.17;;;2.67;;
8466;SDS011;4270;48.148;11.648;2023-12-20T00:58:54;2.90;;;1.80;;
8466;SDS011;4270;48.148;11.648;2023-12-20T01:01:20;2.73;;;1.73;;
8466;SDS011;4270;48.148;11.648;2023-12-20T01:03:46;3.40;;;2.00;;
8466;SDS011;4270;48.148;11.648;2023-12-20T01:06:11;3.20;;;1.80;;
8466;SDS011;4270;48.148;11.648;2023-12-20T01:08:37;4.10;;;1.80;;
8466;SDS011;4270;48.148;11.648;2023-12-20T01:11:03;2.77;;;1.70;;
8466;SDS011;4270;48.148;11.648;2023-12-20T01:13:29;2.90;;;1.70;;
8466;SDS011;4270;48.148;11.648;2023-12-20T01:15:54;2.60;;;1.80;;
8466;SDS011;4270;48.148;11.648;2023-12-20T01:18:19;3.63;;;1.90;;
8466;SDS011;4270;48.148;11.648;2023-12-20T01:20:44;3.30;;;1.50;;
8466;SDS011;4270;48.148;11.648;2023-12-20T01:23:10;2.47;;;1.20;;
8466;SDS011;4270;48.148;11.648;2023-12-20T01:25:35;4.17;;;2.00;;
8466;SDS011;4270;48.148;11.648;2023-12-20T01:28:00;2.47;;;1.60;;
8466;SDS011;4270;48.148;11.648;2023-12-20T01:30:25;3.13;;;1.67;;
8466;SDS011;4270;48.148;11.648;2023-12-20T01:32:50;2.93;;;1.47;;
8466;SDS011;4270;48.148;11.648;2023-12-20T01:35:15;3.40;;;1.77;;
8466;SDS011;4270;48.148;11.648;2023-12-20T01:37:40;4.00;;;1.60;;
8466;SDS011;4270;48.148;11.648;2023-12-20T01:40:06;2.57;;;1.40;;
8466;SDS011;4270;48.148;11.648;2023-12-20T01:42:31;2.33;;;1.57;;
8466;SDS011;4270;48.148;11.648;2023-12-20T01:44:56;3.10;;;1.80;;
8466;SDS011;4270;48.148;11.648;2023-12-20T01:47:21;3.10;;;1.60;;
8466;SDS011;4270;48.148;11.648;2023-12-20T01:49:47;2.53;;;1.27;;
8466;SDS011;4270;48.148;11.648;2023-12-20T01:52:13;2.00;;;1.20;;
8466;SDS011;4270;48.148;11.648;2023-12-20T01:54:38;3.00;;;1.57;;
8466;SDS011;4270;48.148;11.648;2023-12-20T01:57:04;3.03;;;1.60;;
8466;SDS011;4270;48.148;11.648;2023-12-20T01:59:29;1.90;;;1.20;;
8466;SDS011;4270;48.148;11.648;2023-12-20T02:01:54;3.07;;;1.53;;
8466;SDS011;4270;48.148;11.648;2023-12-20T02:04:20;2.13;;;1.10;;
8466;SDS011;4270;48.148;11.648;2023-12-20T02:06:45;2.97;;;1.30;;
8466;SDS011;4270;48.148;11.648;2023-12-20T02:09:11;3.10;;;1.40;;
8466;SDS011;4270;48.148;11.648;2023-12-20T02:11:36;2.83;;;1.63;;
8466;SDS011;4270;48.148;11.648;2023-12-20T02:14:01;2.20;;;1.13;;
8466;SDS011;4270;48.148;11.648;2023-12-20T02:16:27;2.53;;;1.60;;
8466;SDS011;4270;48.148;11.648;2023-12-20T02:18:52;3.47;;;1.23;;
8466;SDS011;4270;48.148;11.648;2023-12-20T02:21:17;2.17;;;1.27;;
8466;SDS011;4270;48.148;11.648;2023-12-20T02:23:42;2.97;;;1.30;;
8466;SDS011;4270;48.148;11.648;2023-12-20T02:26:07;4.43;;;1.50;;
8466;SDS011;4270;48.148;11.648;2023-12-20T02:28:33;2.50;;;1.17;;
8466;SDS011;4270;48.148;11.648;2023-12-20T02:30:58;2.53;;;1.23;;
8466;SDS011;4270;48.148;11.648;2023-12-20T02:33:23;2.90;;;1.03;;
8466;SDS011;4270;48.148;11.648;2023-12-20T02:35:49;2.30;;;1.10;;
8466;SDS011;4270;48.148;11.648;2023-12-20T02:38:14;1.47;;;0.70;;
8466;SDS011;4270;48.148;11.648;2023-12-20T02:40:39;2.77;;;1.77;;
8466;SDS011;4270;48.148;11.648;2023-12-20T02:43:04;3.20;;;0.90;;
8466;SDS011;4270;48.148;11.648;2023-12-20T02:45:29;2.87;;;1.30;;
8466;SDS011;4270;48.148;11.648;2023-12-20T02:47:55;5.30;;;1.00;;
8466;SDS011;4270;48.148;11.648;2023-12-20T02:50:20;2.53;;;0.90;;
8466;SDS011;4270;48.148;11.648;2023-12-20T02:52:45;2.00;;;0.83;;
8466;SDS011;4270;48.148;11.648;2023-12-20T02:55:11;1.83;;;1.00;;
8466;SDS011;4270;48.148;11.648;2023-12-20T02:57:36;1.90;;;0.80;;
8466;SDS011;4270;48.148;11.648;2023-12-20T03:00:01;2.53;;;1.38;;
8466;SDS011;4270;48.148;11.648;2023-12-20T03:02:26;2.17;;;1.00;;
8466;SDS011;4270;48.148;11.648;2023-12-20T03:04:51;1.90;;;0.90;;
8466;SDS011;4270;48.148;11.648;2023-12-20T03:07:17;1.55;;;0.65;;
8466;SDS011;4270;48.148;11.648;2023-12-20T03:09:42;2.47;;;1.03;;
8466;SDS011;4270;48.148;11.648;2023-12-20T03:12:07;1.83;;;0.70;;
8466;SDS011;4270;48.148;11.648;2023-12-20T03:14:32;2.67;;;1.10;;
8466;SDS011;4270;48.148;11.648;2023-12-20T03:16:57;1.97;;;0.90;;
8466;SDS011;4270;48.148;11.648;2023-12-20T03:19:22;1.53;;;0.80;;
8466;SDS011;4270;48.148;11.648;2023-12-20T03:21:48;1.50;;;0.70;;
8466;SDS011;4270;48.148;11.648;2023-12-20T03:24:13;2.05;;;1.15;;
8466;SDS011;4270;48.148;11.648;2023-12-20T03:26:38;4.60;;;1.07;;
8466;SDS011;4270;48.148;11.648;2023-12-20T03:29:03;2.03;;;1.13;;
8466;SDS011;4270;48.148;11.648;2023-12-20T03:31:29;2.00;;;1.10;;
8466;SDS011;4270;48.148;11.648;2023-12-20T03:33:54;1.80;;;0.90;;
8466;SDS011;4270;48.148;11.648;2023-12-20T03:36:19;2.00;;;1.10;;
8466;SDS011;4270;48.148;11.648;2023-12-20T03:38:44;2.10;;;1.30;;
8466;SDS011;4270;48.148;11.648;2023-12-20T03:41:10;2.00;;;1.10;;
8466;SDS011;4270;48.148;11.648;2023-12-20T03:43:35;1.60;;;0.70;;
8466;SDS011;4270;48.148;11.648;2023-12-20T03:46:00;2.97;;;1.00;;
8466;SDS011;4270;48.148;11.648;2023-12-20T03:48:25;1.80;;;0.70;;
8466;SDS011;4270;48.148;11.648;2023-12-20T03:50:51;2.50;;;0.93;;
8466;SDS011;4270;48.148;11.648;2023-12-20T03:53:16;1.80;;;0.70;;
8466;SDS011;4270;48.148;11.648;2023-12-20T03:55:41;2.70;;;0.93;;
8466;SDS011;4270;48.148;11.648;2023-12-20T03:58:06;1.80;;;1.10;;
8466;SDS011;4270;48.148;11.648;2023-12-20T04:00:31;1.42;;;0.65;;
8466;SDS011;4270;48.148;11.648;2023-12-20T04:02:56;2.23;;;0.90;;
8466;SDS011;4270;48.148;11.648;2023-12-20T04:05:21;1.60;;;0.73;;
8466;SDS011;4270;48.148;11.648;2023-12-20T04:07:47;1.90;;;0.80;;
8466;SDS011;4270;48.148;11.648;2023-12-20T04:10:12;1.73;;;0.97;;
8466;SDS011;4270;48.148;11.648;2023-12-20T04:12:37;2.90;;;0.80;;
8466;SDS011;4270;48.148;11.648;2023-12-20T04:15:02;1.58;;;0.90;;
8466;SDS011;4270;48.148;11.648;2023-12-20T04:17:33;2.47;;;1.10;;
8466;SDS011;4270;48.148;11.648;2023-12-20T04:19:59;1.70;;;1.00;;
8466;SDS011;4270;48.148;11.648;2023-12-20T04:22:24;1.85;;;1.10;;
8466;SDS011;4270;48.148;11.648;2023-12-20T04:24:49;1.75;;;0.88;;
8466;SDS011;4270;48.148;11.648;2023-12-20T04:27:14;2.03;;;1.20;;
8466;SDS011;4270;48.148;11.648;2023-12-20T04:29:39;1.63;;;1.13;;
8466;SDS011;4270;48.148;11.648;2023-12-20T04:32:04;1.60;;;1.05;;
8466;SDS011;4270;48.148;11.648;2023-12-20T04:34:30;1.70;;;1.07;;
8466;SDS011;4270;48.148;11.648;2023-12-20T04:36:55;2.60;;;1.50;;
8466;SDS011;4270;48.148;11.648;2023-12-20T04:39:20;1.87;;;1.10;;
8466;SDS011;4270;48.148;11.648;2023-12-20T04:41:45;2.28;;;1.50;;
8466;SDS011;4270;48.148;11.648;2023-12-20T04:44:12;2.07;;;1.40;;
8466;SDS011;4270;48.148;11.648;2023-12-20T04:46:37;2.60;;;1.90;;
8466;SDS011;4270;48.148;11.648;2023-12-20T04:49:03;2.30;;;1.58;;
8466;SDS011;4270;48.148;11.648;2023-12-20T04:51:28;1.97;;;1.43;;
8466;SDS011;4270;48.148;11.648;2023-12-20T04:53:53;2.10;;;1.50;;
8466;SDS011;4270;48.148;11.648;2023-12-20T04:56:18;2.22;;;1.40;;
8466;SDS011;4270;48.148;11.648;2023-12-20T04:58:43;5.33;;;1.10;;
8466;SDS011;4270;48.148;11.648;2023-12-20T05:01:09;5.23;;;1.50;;
8466;SDS011;4270;48.148;11.648;2023-12-20T05:03:34;6.80;;;1.27;;
8466;SDS011;4270;48.148;11.648;2023-12-20T05:05:59;2.93;;;1.60;;
8466;SDS011;4270;48.148;11.648;2023-12-20T05:08:24;3.20;;;1.40;;
8466;SDS011;4270;48.148;11.648;2023-12-20T05:10:50;3.00;;;1.50;;
8466;SDS011;4270;48.148;11.648;2023-12-20T05:13:15;2.70;;;1.70;;
8466;SDS011;4270;48.148;11.648;2023-12-20T05:15:40;2.95;;;1.90;;
8466;SDS011;4270;48.148;11.648;2023-12-20T05:18:05;4.63;;;1.70;;
8466;SDS011;4270;48.148;11.648;2023-12-20T05:20:31;5.03;;;1.93;;
8466;SDS011;4270;48.148;11.648;2023-12-20T05:22:56;2.93;;;1.50;;
8466;SDS011;4270;48.148;11.648;2023-12-20T05:25:21;2.97;;;1.67;;
8466;SDS011;4270;48.148;11.648;2023-12-20T05:27:46;3.00;;;1.75;;
8466;SDS011;4270;48.148;11.648;2023-12-20T05:30:11;2.77;;;1.70;;
8466;SDS011;4270;48.148;11.648;2023-12-20T05:32:36;5.40;;;2.20;;
8466;SDS011;4270;48.148;11.648;2023-12-20T05:35:02;3.13;;;1.92;;
8466;SDS011;4270;48.148;11.648;2023-12-20T05:37:28;3.47;;;2.10;;
8466;SDS011;4270;48.148;11.648;2023-12-20T05:39:53;3.20;;;2.03;;
8466;SDS011;4270;48.148;11.648;2023-12-20T05:42:18;2.70;;;1.90;;
8466;SDS011;4270;48.148;11.648;2023-12-20T05:44:44;3.08;;;1.88;;
8466;SDS011;4270;48.148;11.648;2023-12-20T05:47:09;3.10;;;2.27;;
8466;SDS011;4270;48.148;11.648;2023-12-20T05:49:34;2.90;;;1.70;;
8466;SDS011;4270;48.148;11.648;2023-12-20T05:51:59;3.67;;;2.20;;
8466;SDS011;4270;48.148;11.648;2023-12-20T05:54:24;3.00;;;1.80;;
8466;SDS011;4270;48.148;11.648;2023-12-20T05:56:49;3.30;;;1.87;;
8466;SDS011;4270;48.148;11.648;2023-12-20T05:59:15;2.93;;;1.77;;
8466;SDS011;4270;48.148;11.648;2023-12-20T06:01:40;2.80;;;1.90;;
8466;SDS011;4270;48.148;11.648;2023-12-20T06:04:06;3.20;;;2.80;;
8466;SDS011;4270;48.148;11.648;2023-12-20T06:06:31;3.50;;;2.20;;
8466;SDS011;4270;48.148;11.648;2023-12-20T06:08:56;3.47;;;1.87;;
8466;SDS011;4270;48.148;11.648;2023-12-20T06:11:21;2.60;;;1.60;;
8466;SDS011;4270;48.148;11.648;2023-12-20T06:13:46;3.73;;;1.77;;
8466;SDS011;4270;48.148;11.648;2023-12-20T06:16:12;4.23;;;1.90;;
8466;SDS011;4270;48.148;11.648;2023-12-20T06:18:37;3.10;;;1.97;;
8466;SDS011;4270;48.148;11.648;2023-12-20T06:21:02;3.80;;;2.10;;
8466;SDS011;4270;48.148;11.648;2023-12-20T06:23:28;3.13;;;2.00;;
8466;SDS011;4270;48.148;11.648;2023-12-20T06:25:53;4.70;;;2.30;;
8466;SDS011;4270;48.148;11.648;2023-12-20T06:28:18;4.30;;;2.10;;
8466;SDS011;4270;48.148;11.648;2023-12-20T06:30:43;6.10;;;5.50;;
8466;SDS011;4270;48.148;11.648;2023-12-20T06:33:09;3.73;;;2.10;;
8466;SDS011;4270;48.148;11.648;2023-12-20T06:35:36;3.10;;;2.03;;
8466;SDS011;4270;48.148;11.648;2023-12-20T06:38:01;3.50;;;2.00;;
8466;SDS011;4270;48.148;11.648;2023-12-20T06:40:26;3.67;;;2.13;;
8466;SDS011;4270;48.148;11.648;2023-12-20T06:42:51;4.10;;;2.47;;
8466;SDS011;4270;48.148;11.648;2023-12-20T06:45:17;3.00;;;2.10;;
8466;SDS011;4270;48.148;11.648;2023-12-20T06:47:42;3.50;;;2.20;;
8466;SDS011;4270;48.148;11.648;2023-12-20T06:50:07;3.35;;;1.98;;
8466;SDS011;4270;48.148;11.648;2023-12-20T06:52:33;5.00;;;2.53;;
8466;SDS011;4270;48.148;11.648;2023-12-20T06:54:58;4.63;;;1.80;;
8466;SDS011;4270;48.148;11.648;2023-12-20T06:57:23;4.25;;;2.15;;
8466;SDS011;4270;48.148;11.648;2023-12-20T06:59:51;3.40;;;2.30;;
8466;SDS011;4270;48.148;11.648;2023-12-20T07:02:17;3.13;;;1.90;;
8466;SDS011;4270;48.148;11.648;2023-12-20T07:04:42;4.67;;;2.33;;
8466;SDS011;4270;48.148;11.648;2023-12-20T07:07:07;3.65;;;3.28;;
8466;SDS011;4270;48.148;11.648;2023-12-20T07:09:33;3.30;;;1.87;;
8466;SDS011;4270;48.148;11.648;2023-12-20T07:11:58;3.77;;;1.80;;
8466;SDS011;4270;48.148;11.648;2023-12-20T07:14:23;2.97;;;1.60;;
8466;SDS011;4270;48.148;11.648;2023-12-20T07:16:49;5.80;;;1.97;;
8466;SDS011;4270;48.148;11.648;2023-12-20T07:19:14;2.97;;;1.70;;
8466;SDS011;4270;48.148;11.648;2023-12-20T07:21:39;2.00;;;1.30;;
8466;SDS011;4270;48.148;11.648;2023-12-20T07:24:04;2.87;;;1.33;;
8466;SDS011;4270;48.148;11.648;2023-12-20T07:26:29;2.10;;;1.30;;
8466;SDS011;4270;48.148;11.648;2023-12-20T07:28:54;2.57;;;1.50;;
8466;SDS011;4270;48.148;11.648;2023-12-20T07:31:20;3.40;;;1.33;;
8466;SDS011;4270;48.148;11.648;2023-12-20T07:33:45;3.83;;;1.00;;
8466;SDS011;4270;48.148;11.648;2023-12-20T07:36:10;2.97;;;1.60;;
8466;SDS011;4270;48.148;11.648;2023-12-20T07:38:36;2.70;;;1.07;;
8466;SDS011;4270;48.148;11.648;2023-12-20T07:41:01;1.90;;;1.03;;
8466;SDS011;4270;48.148;11.648;2023-12-20T07:43:27;2.40;;;1.07;;
8466;SDS011;4270;48.148;11.648;2023-12-20T07:45:52;2.33;;;1.10;;
8466;SDS011;4270;48.148;11.648;2023-12-20T07:48:17;2.00;;;1.30;;
8466;SDS011;4270;48.148;11.648;2023-12-20T07:50:42;2.10;;;1.10;;
8466;SDS011;4270;48.148;11.648;2023-12-20T07:53:07;1.60;;;0.97;;
8466;SDS011;4270;48.148;11.648;2023-12-20T07:55:33;2.53;;;1.10;;
8466;SDS011;4270;48.148;11.648;2023-12-20T07:57:59;2.50;;;1.27;;
8466;SDS011;4270;48.148;11.648;2023-12-20T08:00:24;2.53;;;1.43;;
8466;SDS011;4270;48.148;11.648;2023-12-20T08:02:49;2.40;;;1.20;;
8466;SDS011;4270;48.148;11.648;2023-12-20T08:05:15;2.97;;;1.70;;
8466;SDS011;4270;48.148;11.648;2023-12-20T08:07:40;2.05;;;0.95;;
8466;SDS011;4270;48.148;11.648;2023-12-20T08:10:05;2.33;;;1.23;;
8466;SDS011;4270;48.148;11.648;2023-12-20T08:12:30;2.90;;;1.27;;
8466;SDS011;4270;48.148;11.648;2023-12-20T08:14:56;4.43;;;2.30;;
8466;SDS011;4270;48.148;11.648;2023-12-20T08:17:22;2.50;;;1.27;;
8466;SDS011;4270;48.148;11.648;2023-12-20T08:19:48;3.50;;;1.57;;
8466;SDS011;4270;48.148;11.648;2023-12-20T08:22:13;2.43;;;1.27;;
8466;SDS011;4270;48.148;11.648;2023-12-20T08:24:38;2.50;;;1.13;;
8466;SDS011;4270;48.148;11.648;2023-12-20T08:27:04;2.10;;;1.30;;
8466;SDS011;4270;48.148;11.648;2023-12-20T08:29:29;2.50;;;1.30;;
8466;SDS011;4270;48.148;11.648;2023-12-20T08:31:55;2.60;;;1.30;;
8466;SDS011;4270;48.148;11.648;2023-12-20T08:34:20;2.90;;;1.47;;
8466;SDS011;4270;48.148;11.648;2023-12-20T08:36:45;3.83;;;1.73;;
8466;SDS011;4270;48.148;11.648;2023-12-20T08:39:10;2.20;;;1.20;;
8466;SDS011;4270;48.148;11.648;2023-12-20T08:41:35;2.78;;;1.20;;
8466;SDS011;4270;48.148;11.648;2023-12-20T08:44:01;2.77;;;1.40;;
8466;SDS011;4270;48.148;11.648;2023-12-20T08:46:27;2.90;;;1.40;;
8466;SDS011;4270;48.148;11.648;2023-12-20T08:48:52;3.23;;;1.70;;
8466;SDS011;4270;48.148;11.648;2023-12-20T08:51:17;2.88;;;1.48;;
8466;SDS011;4270;48.148;11.648;2023-12-20T08:53:43;2.13;;;1.13;;
8466;SDS011;4270;48.148;11.648;2023-12-20T08:56:10;1.90;;;0.97;;
8466;SDS011;4270;48.148;11.648;2023-12-20T08:58:35;4.50;;;1.10;;
8466;SDS011;4270;48.148;11.648;2023-12-20T09:01:00;2.40;;;1.30;;
8466;SDS011;4270;48.148;11.648;2023-12-20T09:03:26;1.80;;;1.10;;
8466;SDS011;4270;48.148;11.648;2023-12-20T09:05:51;2.40;;;1.13;;
8466;SDS011;4270;48.148;11.648;2023-12-20T09:08:16;3.53;;;1.23;;
8466;SDS011;4270;48.148;11.648;2023-12-20T09:10:41;2.33;;;1.30;;
8466;SDS011;4270;48.148;11.648;2023-12-20T09:13:06;3.22;;;1.60;;
8466;SDS011;4270;48.148;11.648;2023-12-20T09:15:31;1.80;;;1.03;;
8466;SDS011;4270;48.148;11.648;2023-12-20T09:17:59;2.80;;;1.67;;
8466;SDS011;4270;48.148;11.648;2023-12-20T09:20:24;4.40;;;1.70;;
8466;SDS011;4270;48.148;11.648;2023-12-20T09:22:49;3.57;;;1.50;;
8466;SDS011;4270;48.148;11.648;2023-12-20T09:25:14;5.10;;;1.43;;
8466;SDS011;4270;48.148;11.648;2023-12-20T09:27:40;1.60;;;0.90;;
8466;SDS011;4270;48.148;11.648;2023-12-20T09:30:06;1.50;;;0.80;;
8466;SDS011;4270;48.148;11.648;2023-12-20T09:32:32;1.87;;;1.13;;
8466;SDS011;4270;48.148;11.648;2023-12-20T09:34:57;2.57;;;1.60;;
8466;SDS011;4270;48.148;11.648;2023-12-20T09:37:22;1.70;;;1.00;;
8466;SDS011;4270;48.148;11.648;2023-12-20T09:39:48;2.67;;;1.27;;
8466;SDS011;4270;48.148;11.648;2023-12-20T09:42:14;1.83;;;1.02;;
8466;SDS011;4270;48.148;11.648;2023-12-20T09:44:42;1.60;;;1.10;;
8466;SDS011;4270;48.148;11.648;2023-12-20T09:47:09;3.03;;;1.30;;
8466;SDS011;4270;48.148;11.648;2023-12-20T09:49:34;2.03;;;1.00;;
8466;SDS011;4270;48.148;11.648;2023-12-20T09:52:00;1.73;;;1.00;;
8466;SDS011;4270;48.148;11.648;2023-12-20T09:54:25;2.03;;;0.93;;
8466;SDS011;4270;48.148;11.648;2023-12-20T09:56:51;2.23;;;1.07;;
8466;SDS011;4270;48.148;11.648;2023-12-20T09:59:17;1.93;;;1.20;;
8466;SDS011;4270;48.148;11.648;2023-12-20T10:01:42;3.10;;;1.50;;
8466;SDS011;4270;48.148;11.648;2023-12-20T10:04:08;2.63;;;1.10;;
8466;SDS011;4270;48.148;11.648;2023-12-20T10:06:37;3.60;;;1.23;;
8466;SDS011;4270;48.148;11.648;2023-12-20T10:09:03;2.43;;;1.53;;
8466;SDS011;4270;48.148;11.648;2023-12-20T10:11:29;1.90;;;1.30;;
8466;SDS011;4270;48.148;11.648;2023-12-20T10:13:58;2.10;;;1.30;;
8466;SDS011;4270;48.148;11.648;2023-12-20T10:16:24;2.63;;;1.30;;
8466;SDS011;4270;48.148;11.648;2023-12-20T10:18:49;4.17;;;1.77;;
8466;SDS011;4270;48.148;11.648;2023-12-20T10:21:15;2.33;;;1.48;;
8466;SDS011;4270;48.148;11.648;2023-12-20T10:23:40;3.83;;;1.50;;
8466;SDS011;4270;48.148;11.648;2023-12-20T10:26:05;2.53;;;1.20;;
8466;SDS011;4270;48.148;11.648;2023-12-20T10:28:34;2.37;;;1.13;;
8466;SDS011;4270;48.148;11.648;2023-12-20T10:30:59;2.43;;;1.10;;
8466;SDS011;4270;48.148;11.648;2023-12-20T10:33:25;2.70;;;1.30;;
8466;SDS011;4270;48.148;11.648;2023-12-20T10:35:50;2.00;;;1.10;;
8466;SDS011;4270;48.148;11.648;2023-12-20T10:38:16;2.57;;;1.47;;
8466;SDS011;4270;48.148;11.648;2023-12-20T10:40:41;2.15;;;1.23;;
8466;SDS011;4270;48.148;11.648;2023-12-20T10:43:07;2.83;;;1.70;;
8466;SDS011;4270;48.148;11.648;2023-12-20T10:45:33;2.17;;;1.07;;
8466;SDS011;4270;48.148;11.648;2023-12-20T10:47:58;2.00;;;0.97;;
8466;SDS011;4270;48.148;11.648;2023-12-20T10:50:24;3.77;;;1.30;;
8466;SDS011;4270;48.148;11.648;2023-12-20T10:52:50;1.90;;;1.17;;
8466;SDS011;4270;48.148;11.648;2023-12-20T10:55:20;2.17;;;1.20;;
8466;SDS011;4270;48.148;11.648;2023-12-20T10:57:45;1.70;;;1.03;;
8466;SDS011;4270;48.148;11.648;2023-12-20T11:00:15;2.90;;;1.37;;
8466;SDS011;4270;48.148;11.648;2023-12-20T11:02:41;4.00;;;1.40;;
8466;SDS011;4270;48.148;11.648;2023-12-20T11:05:19;2.47;;;1.33;;
8466;SDS011;4270;48.148;11.648;2023-12-20T11:07:48;2.20;;;1.00;;
8466;SDS011;4270;48.148;11.648;2023-12-20T11:10:36;2.13;;;1.27;;
8466;SDS011;4270;48.148;11.648;2023-12-20T11:13:20;2.23;;;1.10;;
8466;SDS011;4270;48.148;11.648;2023-12-20T11:15:45;2.00;;;1.20;;
8466;SDS011;4270;48.148;11.648;2023-12-20T11:18:11;3.63;;;1.50;;
8466;SDS011;4270;48.148;11.648;2023-12-20T11:20:39;3.13;;;1.40;;
8466;SDS011;4270;48.148;11.648;2023-12-20T11:23:05;2.90;;;1.33;;
8466;SDS011;4270;48.148;11.648;2023-12-20T11:28:10;2.90;;;1.40;;
8466;SDS011;4270;48.148;11.648;2023-12-20T11:30:49;2.33;;;1.43;;
8466;SDS011;4270;48.148;11.648;2023-12-20T11:33:15;2.10;;;1.30;;
8466;SDS011;4270;48.148;11.648;2023-12-20T11:35:41;3.27;;;2.03;;
8466;SDS011;4270;48.148;11.648;2023-12-20T11:38:09;4.73;;;1.50;;
8466;SDS011;4270;48.148;11.648;2023-12-20T11:40:35;3.20;;;1.60;;
8466;SDS011;4270;48.148;11.648;2023-12-20T11:43:00;2.30;;;1.50;;
8466;SDS011;4270;48.148;11.648;2023-12-20T11:45:25;3.00;;;1.67;;
8466;SDS011;4270;48.148;11.648;2023-12-20T11:47:52;2.43;;;1.90;;
8466;SDS011;4270;48.148;11.648;2023-12-20T11:50:20;3.07;;;1.63;;
8466;SDS011;4270;48.148;11.648;2023-12-20T11:52:46;2.37;;;1.53;;
8466;SDS011;4270;48.148;11.648;2023-12-20T11:55:11;3.50;;;1.60;;
8466;SDS011;4270;48.148;11.648;2023-12-20T11:57:37;2.63;;;1.80;;
8466;SDS011;4270;48.148;11.648;2023-12-20T12:00:03;4.20;;;3.90;;
8466;SDS011;4270;48.148;11.648;2023-12-20T12:02:28;3.07;;;1.97;;
8466;SDS011;4270;48.148;11.648;2023-12-20T12:04:53;2.63;;;1.83;;
8466;SDS011;4270;48.148;11.648;2023-12-20T12:07:19;3.00;;;2.00;;
8466;SDS011;4270;48.148;11.648;2023-12-20T12:09:45;5.00;;;1.80;;
8466;SDS011;4270;48.148;11.648;2023-12-20T12:12:10;2.43;;;1.63;;
8466;SDS011;4270;48.148;11.648;2023-12-20T12:14:37;3.03;;;1.37;;
8466;SDS011;4270;48.148;11.648;2023-12-20T12:17:02;2.87;;;1.80;;
8466;SDS011;4270;48.148;11.648;2023-12-20T12:19:29;3.03;;;1.63;;
8466;SDS011;4270;48.148;11.648;2023-12-20T12:22:04;2.63;;;1.80;;
8466;SDS011;4270;48.148;11.648;2023-12-20T12:24:31;2.70;;;1.57;;
8466;SDS011;4270;48.148;11.648;2023-12-20T12:26:57;3.10;;;1.87;;
8466;SDS011;4270;48.148;11.648;2023-12-20T12:29:22;2.60;;;1.50;;
8466;SDS011;4270;48.148;11.648;2023-12-20T12:31:47;2.87;;;1.73;;
8466;SDS011;4270;48.148;11.648;2023-12-20T12:34:13;3.23;;;1.70;;
8466;SDS011;4270;48.148;11.648;2023-12-20T12:36:38;2.80;;;1.63;;
8466;SDS011;4270;48.148;11.648;2023-12-20T12:39:04;3.53;;;1.40;;
8466;SDS011;4270;48.148;11.648;2023-12-20T12:41:30;2.67;;;1.40;;
8466;SDS011;4270;48.148;11.648;2023-12-20T12:43:55;3.10;;;2.00;;
8466;SDS011;4270;48.148;11.648;2023-12-20T12:46:20;3.37;;;1.67;;
8466;SDS011;4270;48.148;11.648;2023-12-20T12:48:45;2.80;;;1.67;;
8466;SDS011;4270;48.148;11.648;2023-12-20T12:51:11;3.03;;;1.70;;
8466;SDS011;4270;48.148;11.648;2023-12-20T12:53:38;2.90;;;1.50;;
8466;SDS011;4270;48.148;11.648;2023-12-20T12:56:03;4.07;;;2.47;;
8466;SDS011;4270;48.148;11.648;2023-12-20T12:58:29;2.30;;;1.33;;
8466;SDS011;4270;48.148;11.648;2023-12-20T13:00:54;2.90;;;1.50;;
8466;SDS011;4270;48.148;11.648;2023-12-20T13:03:20;3.00;;;1.60;;
8466;SDS011;4270;48.148;11.648;2023-12-20T13:05:45;2.37;;;1.53;;
8466;SDS011;4270;48.148;11.648;2023-12-20T13:08:11;2.43;;;1.50;;
8466;SDS011;4270;48.148;11.648;2023-12-20T13:10:37;3.90;;;2.40;;
8466;SDS011;4270;48.148;11.648;2023-12-20T13:13:02;2.57;;;1.60;;
8466;SDS011;4270;48.148;11.648;2023-12-20T13:15:29;2.90;;;2.40;;
8466;SDS011;4270;48.148;11.648;2023-12-20T13:17:54;3.13;;;1.77;;
8466;SDS011;4270;48.148;11.648;2023-12-20T13:20:19;3.88;;;3.35;;
8466;SDS011;4270;48.148;11.648;2023-12-20T13:22:44;6.20;;;2.03;;
8466;SDS011;4270;48.148;11.648;2023-12-20T13:25:09;3.20;;;2.03;;
8466;SDS011;4270;48.148;11.648;2023-12-20T13:27:34;3.75;;;1.70;;
8466;SDS011;4270;48.148;11.648;2023-12-20T13:29:59;4.47;;;1.70;;
8466;SDS011;4270;48.148;11.648;2023-12-20T13:32:25;2.33;;;1.63;;
8466;SDS011;4270;48.148;11.648;2023-12-20T13:34:50;3.80;;;1.50;;
8466;SDS011;4270;48.148;11.648;2023-12-20T13:37:15;3.13;;;2.20;;
8466;SDS011;4270;48.148;11.648;2023-12-20T13:39:40;3.17;;;2.00;;
8466;SDS011;4270;48.148;11.648;2023-12-20T13:42:06;3.27;;;2.43;;
8466;SDS011;4270;48.148;11.648;2023-12-20T13:44:31;4.50;;;1.67;;
8466;SDS011;4270;48.148;11.648;2023-12-20T13:46:56;3.10;;;1.63;;
8466;SDS011;4270;48.148;11.648;2023-12-20T13:49:21;3.65;;;2.20;;
8466;SDS011;4270;48.148;11.648;2023-12-20T13:51:50;2.87;;;1.80;;
8466;SDS011;4270;48.148;11.648;2023-12-20T13:54:15;3.87;;;2.27;;
8466;SDS011;4270;48.148;11.648;2023-12-20T13:56:41;3.40;;;1.77;;
8466;SDS011;4270;48.148;11.648;2023-12-20T13:59:06;3.65;;;1.58;;
8466;SDS011;4270;48.148;11.648;2023-12-20T14:01:32;3.40;;;1.90;;
8466;SDS011;4270;48.148;11.648;2023-12-20T14:03:57;3.40;;;1.73;;
8466;SDS011;4270;48.148;11.648;2023-12-20T14:06:22;4.53;;;1.83;;
8466;SDS011;4270;48.148;11.648;2023-12-20T14:08:47;4.40;;;1.93;;
8466;SDS011;4270;48.148;11.648;2023-12-20T14:11:13;3.53;;;2.10;;
8466;SDS011;4270;48.148;11.648;2023-12-20T14:13:40;3.03;;;1.63;;
8466;SDS011;4270;48.148;11.648;2023-12-20T14:16:05;3.92;;;2.53;;
8466;SDS011;4270;48.148;11.648;2023-12-20T14:18:30;4.20;;;1.70;;
8466;SDS011;4270;48.148;11.648;2023-12-20T14:20:55;7.78;;;2.30;;
8466;SDS011;4270;48.148;11.648;2023-12-20T14:23:21;3.97;;;2.38;;
8466;SDS011;4270;48.148;11.648;2023-12-20T14:25:46;3.83;;;2.40;;
8466;SDS011;4270;48.148;11.648;2023-12-20T14:28:12;4.13;;;2.00;;
8466;SDS011;4270;48.148;11.648;2023-12-20T14:30:39;3.13;;;1.73;;
8466;SDS011;4270;48.148;11.648;2023-12-20T14:33:04;3.07;;;1.90;;
8466;SDS011;4270;48.148;11.648;2023-12-20T14:35:29;2.70;;;1.60;;
8466;SDS011;4270;48.148;11.648;2023-12-20T14:37:54;4.28;;;2.50;;
8466;SDS011;4270;48.148;11.648;2023-12-20T14:40:20;4.60;;;1.93;;
8466;SDS011;4270;48.148;11.648;2023-12-20T14:42:45;4.40;;;1.90;;
8466;SDS011;4270;48.148;11.648;2023-12-20T14:45:11;5.53;;;2.00;;
8466;SDS011;4270;48.148;11.648;2023-12-20T14:47:36;3.30;;;2.13;;
8466;SDS011;4270;48.148;11.648;2023-12-20T14:50:04;2.40;;;1.80;;
8466;SDS011;4270;48.148;11.648;2023-12-20T14:52:30;2.13;;;1.37;;